GABS/BKO METAR and TAF weather

Enter ICAO airport designator
Station Type Date Time Source
GABS METAR 2020/01/23 09:00 UTC NOAA

GABS 230900Z 07004KT 040V110 6000 NSC 26/06 Q1017 NOSIG


Station Type Date Time Source
GABS Decoded METAR 2020/01/23 09:00 UTC NOAA

Bamako / Senou, Mali (GABS) 12-32N 007-57W 381M
Jan 23, 2020 - 04:00 AM EST / 2020.01.23 0900 UTC
Wind: from the ENE (070 degrees) at 5 MPH (4 KT) (direction variable):0
Visibility: 3 mile(s):0
Temperature: 78 F (26 C)
Dew Point: 42 F (6 C)
Relative Humidity: 27%
Pressure (altimeter): 30.03 in. Hg (1017 hPa)
ob: GABS 230900Z 07004KT 040V110 6000 NSC 26/06 Q1017 NOSIG
cycle: 9

Station Type Date Time Source
GABS TAF 2020/01/23 06:24 UTC NOAA

TAF TAF COR GABS 230515Z 2306/2412 05008KT 6000 NSC PROB40
TEMPO 2308/2314 4000 DU

Example: see airport list